createdAt,value
2019-01-21T00:00:40.096Z,99.30
2019-01-21T00:03:14.471Z,99.30
2019-01-21T00:05:39.727Z,99.50
2019-01-21T00:08:06.978Z,99.30
2019-01-21T00:10:34.229Z,99.40
2019-01-21T00:13:01.144Z,99.40
2019-01-21T00:15:28.261Z,99.40
2019-01-21T00:17:55.221Z,99.40
2019-01-21T00:20:22.196Z,99.80
2019-01-21T00:22:49.018Z,99.40
2019-01-21T00:25:16.289Z,99.60
2019-01-21T00:27:53.469Z,99.60
2019-01-21T00:30:20.634Z,99.50
2019-01-21T00:32:48.054Z,99.50
2019-01-21T00:35:15.694Z,99.90
2019-01-21T00:37:43.088Z,99.50
2019-01-21T00:40:10.495Z,99.60
2019-01-21T00:42:40.646Z,99.60
2019-01-21T00:45:10.388Z,99.70
2019-01-21T00:47:37.963Z,99.70
2019-01-21T00:50:05.672Z,99.70
2019-01-21T00:52:32.961Z,99.90
2019-01-21T00:55:03.723Z,99.90
2019-01-21T00:57:30.616Z,99.80
2019-01-21T00:59:57.584Z,99.80
2019-01-21T01:02:24.863Z,99.70
2019-01-21T01:04:52.637Z,99.70
2019-01-21T01:07:19.561Z,99.80
2019-01-21T01:09:46.571Z,99.90
2019-01-21T01:12:13.372Z,99.90
2019-01-21T01:14:43.447Z,99.90
2019-01-21T01:17:10.541Z,99.90
2019-01-21T01:19:37.295Z,99.90
2019-01-21T01:22:04.277Z,99.90
2019-01-21T01:24:31.087Z,99.90
2019-01-21T01:26:58.075Z,99.90
2019-01-21T01:29:24.815Z,99.90
2019-01-21T01:31:51.667Z,99.90
2019-01-21T01:34:18.650Z,99.90
2019-01-21T01:36:45.515Z,99.90
2019-01-21T01:39:12.435Z,99.90
2019-01-21T01:41:39.390Z,99.90
2019-01-21T01:44:06.360Z,99.90
2019-01-21T01:46:33.319Z,99.90
2019-01-21T01:49:00.491Z,99.90
2019-01-21T01:51:30.196Z,99.90
2019-01-21T01:53:57.267Z,99.90
2019-01-21T01:56:24.199Z,99.90
2019-01-21T01:58:51.479Z,99.90
2019-01-21T02:01:18.532Z,99.90
2019-01-21T02:03:45.405Z,99.90
2019-01-21T02:06:12.374Z,99.90
2019-01-21T02:08:39.639Z,99.90
2019-01-21T02:11:06.491Z,99.90
2019-01-21T02:13:33.444Z,99.90
2019-01-21T02:16:00.294Z,99.90
2019-01-21T02:18:27.867Z,99.90
2019-01-21T02:21:00.029Z,99.90
2019-01-21T02:23:30.991Z,99.90
2019-01-21T02:26:00.606Z,99.90
2019-01-21T02:29:02.553Z,99.90
2019-01-21T02:32:17.550Z,99.90
2019-01-21T02:35:19.626Z,99.90
2019-01-21T02:38:17.335Z,99.90
2019-01-21T02:40:58.452Z,99.90
2019-01-21T02:44:01.067Z,99.90
2019-01-21T02:47:10.618Z,99.90
2019-01-21T02:50:15.980Z,99.90
2019-01-21T02:53:06.101Z,99.90
2019-01-21T02:56:26.634Z,99.90
2019-01-21T02:59:22.855Z,99.90
2019-01-21T03:02:21.998Z,99.90
2019-01-21T03:05:19.870Z,99.90
2019-01-21T03:08:37.639Z,99.90
2019-01-21T03:12:00.793Z,99.90
2019-01-21T03:15:01.470Z,99.90
2019-01-21T03:18:15.448Z,99.90
2019-01-21T03:21:32.703Z,99.90
2019-01-21T03:24:56.830Z,99.90
2019-01-21T03:28:12.956Z,99.90
2019-01-21T03:31:16.404Z,99.90
2019-01-21T03:34:24.640Z,99.90
2019-01-21T03:37:31.326Z,99.90
2019-01-21T03:40:55.589Z,99.90
2019-01-21T03:44:06.493Z,99.90
2019-01-21T03:46:57.429Z,99.90
2019-01-21T03:50:17.366Z,99.90
2019-01-21T03:53:21.206Z,99.90
2019-01-21T03:55:51.783Z,99.90
2019-01-21T03:58:46.583Z,99.90
2019-01-21T04:01:46.484Z,99.90
2019-01-21T04:04:45.163Z,99.90
2019-01-21T04:07:53.855Z,99.90
2019-01-21T04:11:05.719Z,99.90
2019-01-21T04:14:03.190Z,99.90
2019-01-21T04:17:27.858Z,99.90
2019-01-21T04:20:09.980Z,99.90
2019-01-21T04:23:00.302Z,99.90
2019-01-21T04:26:00.659Z,99.90
2019-01-21T04:28:56.385Z,99.90
2019-01-21T04:32:08.308Z,99.90
2019-01-21T04:34:50.026Z,99.90
2019-01-21T04:37:49.428Z,99.90
2019-01-21T04:40:56.461Z,99.90
2019-01-21T04:44:03.496Z,99.90
2019-01-21T04:46:59.883Z,99.90
2019-01-21T04:49:42.141Z,99.90
2019-01-21T04:52:29.540Z,99.90
2019-01-21T04:55:27.411Z,99.90
2019-01-21T04:58:07.158Z,99.90
2019-01-21T05:01:14.360Z,99.90
2019-01-21T05:04:26.250Z,99.90
2019-01-21T05:07:46.327Z,99.90
2019-01-21T05:10:46.903Z,99.90
2019-01-21T05:13:53.662Z,99.90
2019-01-21T05:17:18.027Z,99.90
2019-01-21T05:20:15.519Z,99.90
2019-01-21T05:23:17.322Z,99.90
2019-01-21T05:26:20.639Z,99.90
2019-01-21T05:29:28.099Z,99.90
2019-01-21T05:32:37.247Z,99.90
2019-01-21T05:35:37.725Z,99.90
2019-01-21T05:38:18.036Z,99.90
2019-01-21T05:41:36.986Z,99.90
2019-01-21T05:44:33.821Z,99.90
2019-01-21T05:48:07.687Z,99.90
2019-01-21T05:51:16.675Z,99.90
2019-01-21T05:54:10.660Z,99.90
2019-01-21T05:57:43.663Z,99.90
2019-01-21T06:00:55.107Z,99.90
2019-01-21T06:03:54.683Z,99.90
2019-01-21T06:07:09.151Z,99.90
2019-01-21T06:10:17.739Z,99.90
2019-01-21T06:13:25.247Z,99.90
2019-01-21T06:16:13.077Z,99.90
2019-01-21T06:19:31.279Z,99.90
2019-01-21T06:22:20.180Z,99.90
2019-01-21T06:25:27.512Z,99.90
2019-01-21T06:29:00.641Z,99.90
2019-01-21T06:31:43.926Z,99.90
2019-01-21T06:34:58.955Z,99.90
2019-01-21T06:37:56.588Z,99.90
2019-01-21T06:40:54.038Z,99.90
2019-01-21T06:44:05.792Z,99.90
2019-01-21T06:46:49.786Z,99.90
2019-01-21T06:49:42.479Z,99.90
2019-01-21T06:53:08.024Z,99.90
2019-01-21T06:55:57.259Z,99.90
2019-01-21T06:59:04.515Z,99.90
2019-01-21T07:02:09.809Z,99.90
2019-01-21T07:05:00.191Z,99.90
2019-01-21T07:08:10.953Z,99.90
2019-01-21T07:11:08.683Z,99.90
2019-01-21T07:14:28.778Z,99.90
2019-01-21T07:17:07.952Z,99.90
2019-01-21T07:19:59.181Z,99.90
2019-01-21T07:22:54.803Z,99.90
2019-01-21T07:25:45.297Z,99.90
2019-01-21T07:28:47.019Z,99.90
2019-01-21T07:32:07.407Z,99.90
2019-01-21T07:35:22.017Z,99.90
2019-01-21T07:38:18.089Z,99.90
2019-01-21T07:41:17.988Z,99.90
2019-01-21T07:44:19.695Z,99.90
2019-01-21T07:47:39.363Z,99.90
2019-01-21T07:50:29.993Z,99.90
2019-01-21T07:53:37.434Z,99.90
2019-01-21T07:56:45.227Z,99.90
2019-01-21T07:59:39.658Z,99.70
2019-01-21T08:02:37.747Z,99.30
2019-01-21T08:05:41.734Z,99.10
2019-01-21T08:08:46.963Z,98.90
2019-01-21T08:11:50.290Z,98.80
2019-01-21T08:14:34.987Z,99.00
2019-01-21T08:17:50.303Z,99.10
2019-01-21T08:20:52.510Z,99.10
2019-01-21T08:24:02.588Z,99.20
2019-01-21T08:27:16.179Z,99.30
2019-01-21T08:30:14.621Z,99.40
2019-01-21T08:33:19.930Z,99.40
2019-01-21T08:36:38.217Z,99.50
2019-01-21T08:39:46.819Z,99.50
2019-01-21T08:42:49.483Z,99.40
2019-01-21T08:46:07.947Z,99.30
2019-01-21T08:48:47.470Z,99.40
2019-01-21T08:51:35.714Z,99.40
2019-01-21T08:55:00.248Z,99.40
2019-01-21T08:58:06.300Z,99.20
2019-01-21T09:01:13.014Z,99.10
2019-01-21T09:04:24.828Z,99.10
2019-01-21T09:07:15.788Z,99.00
2019-01-21T09:10:04.644Z,99.00
2019-01-21T09:13:08.339Z,98.70
2019-01-21T09:16:03.527Z,98.40
2019-01-21T09:18:57.504Z,98.30
2019-01-21T09:22:15.531Z,98.30
2019-01-21T09:25:12.371Z,98.20
2019-01-21T09:27:48.899Z,97.60
2019-01-21T09:31:04.592Z,97.50
2019-01-21T09:33:47.559Z,97.20
2019-01-21T09:36:44.261Z,96.70
2019-01-21T09:39:48.138Z,96.50
2019-01-21T09:42:30.837Z,96.00
2019-01-21T09:45:23.932Z,95.10
2019-01-21T09:47:49.995Z,94.40
2019-01-21T09:50:17.661Z,94.00
2019-01-21T09:52:45.031Z,93.80
2019-01-21T09:55:13.752Z,93.50
2019-01-21T09:57:43.519Z,92.50
2019-01-21T10:00:16.067Z,91.70
2019-01-21T10:02:47.343Z,91.40
2019-01-21T10:05:15.820Z,91.80
2019-01-21T10:08:40.020Z,92.20
2019-01-21T10:12:04.115Z,92.50
2019-01-21T10:15:04.106Z,92.90
2019-01-21T10:17:49.503Z,93.90
2019-01-21T10:21:13.159Z,94.40
2019-01-21T10:23:54.328Z,94.80
2019-01-21T10:27:05.651Z,95.10
2019-01-21T10:30:11.293Z,94.80
2019-01-21T10:33:09.659Z,94.60
2019-01-21T10:36:18.643Z,94.90
2019-01-21T10:39:26.839Z,95.10
2019-01-21T10:42:21.463Z,95.10
2019-01-21T10:45:25.103Z,95.60
2019-01-21T10:48:27.743Z,95.90
2019-01-21T10:51:04.253Z,95.80
2019-01-21T10:54:12.403Z,96.00
2019-01-21T10:57:15.263Z,95.30
2019-01-21T11:00:04.267Z,95.40
2019-01-21T11:02:59.642Z,95.20
2019-01-21T11:06:01.172Z,95.30
2019-01-21T11:08:47.595Z,95.00
2019-01-21T11:11:54.109Z,94.90
2019-01-21T11:14:46.570Z,94.40
2019-01-21T11:18:00.271Z,93.70
2019-01-21T11:21:05.687Z,93.20
2019-01-21T11:24:26.730Z,91.50
2019-01-21T11:27:22.942Z,90.20
2019-01-21T11:30:16.217Z,86.20
2019-01-21T11:33:36.897Z,82.90
2019-01-21T11:36:27.367Z,77.80
2019-01-21T11:39:33.327Z,72.70
2019-01-21T11:42:38.183Z,68.90
2019-01-21T11:45:28.223Z,59.20
2019-01-21T11:48:20.406Z,59.50
2019-01-21T11:51:41.234Z,61.30
2019-01-21T11:54:41.960Z,59.60
2019-01-21T11:58:02.977Z,56.60
2019-01-21T12:00:59.723Z,56.30
2019-01-21T12:03:58.123Z,55.00
2019-01-21T12:06:35.777Z,54.10
2019-01-21T12:09:14.215Z,54.50
2019-01-21T12:12:17.178Z,53.60
2019-01-21T12:15:20.151Z,55.00
2019-01-21T12:18:31.967Z,55.40
2019-01-21T12:21:35.778Z,53.50
2019-01-21T12:24:47.589Z,52.00
2019-01-21T12:27:53.387Z,48.80
2019-01-21T12:30:31.220Z,48.30
2019-01-21T12:33:26.739Z,48.00
2019-01-21T12:36:07.314Z,50.70
2019-01-21T12:38:55.950Z,54.90
2019-01-21T12:41:48.167Z,54.40
2019-01-21T12:44:43.609Z,52.40
2019-01-21T12:47:20.323Z,51.40
2019-01-21T12:50:40.379Z,51.10
2019-01-21T12:53:21.744Z,50.20
2019-01-21T12:56:19.991Z,48.50
2019-01-21T12:59:07.360Z,47.30
2019-01-21T13:01:56.645Z,47.20
2019-01-21T13:05:01.675Z,48.10
2019-01-21T13:07:59.786Z,48.10
2019-01-21T13:10:50.671Z,48.80
2019-01-21T13:14:14.634Z,49.20
2019-01-21T13:17:29.387Z,50.00
2019-01-21T13:20:30.412Z,48.20
2019-01-21T13:23:10.017Z,47.10
2019-01-21T13:26:01.963Z,47.40
2019-01-21T13:28:54.531Z,49.40
2019-01-21T13:32:07.163Z,51.90
2019-01-21T13:35:11.112Z,52.00
2019-01-21T13:38:20.675Z,53.20
2019-01-21T13:41:16.663Z,52.80
2019-01-21T13:44:15.619Z,53.50
2019-01-21T13:47:19.227Z,53.00
2019-01-21T13:50:14.443Z,54.40
2019-01-21T13:53:26.366Z,56.60
2019-01-21T13:56:25.531Z,56.20
2019-01-21T13:59:16.199Z,57.50
2019-01-21T14:02:16.083Z,57.20
2019-01-21T14:05:35.847Z,56.90
2019-01-21T14:08:27.679Z,56.10
2019-01-21T14:11:13.859Z,56.00
2019-01-21T14:14:00.851Z,55.40
2019-01-21T14:17:00.273Z,57.20
2019-01-21T14:20:05.925Z,57.90
2019-01-21T14:22:48.644Z,61.60
2019-01-21T14:25:45.887Z,66.40
2019-01-21T14:28:48.407Z,70.00
2019-01-21T14:32:02.430Z,71.20
2019-01-21T14:34:44.790Z,71.10
2019-01-21T14:37:55.823Z,74.70
2019-01-21T14:41:10.800Z,76.00
2019-01-21T14:44:12.736Z,77.40
2019-01-21T14:47:21.815Z,80.10
2019-01-21T14:50:40.001Z,83.20
2019-01-21T14:53:57.208Z,85.70
2019-01-21T14:56:38.523Z,85.50
2019-01-21T14:59:35.409Z,87.00
2019-01-21T15:02:34.196Z,88.20
2019-01-21T15:05:43.249Z,88.90
2019-01-21T15:08:25.833Z,88.50
2019-01-21T15:11:30.405Z,88.60
2019-01-21T15:14:07.091Z,88.50
2019-01-21T15:17:11.143Z,89.00
2019-01-21T15:19:50.371Z,90.00
2019-01-21T15:22:47.246Z,89.40
2019-01-21T15:25:33.529Z,90.00
2019-01-21T15:28:44.166Z,89.00
2019-01-21T15:31:43.638Z,90.30
2019-01-21T15:34:52.469Z,90.00
2019-01-21T15:37:43.040Z,90.70
2019-01-21T15:40:36.798Z,91.60
2019-01-21T15:43:35.235Z,92.10
2019-01-21T15:46:31.832Z,92.60
2019-01-21T15:49:10.060Z,93.10
2019-01-21T15:52:16.771Z,93.50
2019-01-21T15:55:22.242Z,93.60
2019-01-21T15:58:05.429Z,93.50
2019-01-21T16:01:16.437Z,93.90
2019-01-21T16:04:15.027Z,94.10
2019-01-21T16:07:10.137Z,94.50
2019-01-21T16:10:14.001Z,94.80
2019-01-21T16:13:01.984Z,95.20
2019-01-21T16:15:52.026Z,95.70
2019-01-21T16:18:44.282Z,96.00
2019-01-21T16:21:45.346Z,96.10
2019-01-21T16:24:29.179Z,96.20
2019-01-21T16:27:14.238Z,96.10
2019-01-21T16:29:49.897Z,96.20
2019-01-21T16:32:23.179Z,96.40
2019-01-21T16:35:20.654Z,96.60
2019-01-21T16:38:07.459Z,96.80
2019-01-21T16:41:12.892Z,97.00
2019-01-21T16:43:39.887Z,97.30
2019-01-21T16:46:06.833Z,97.50
2019-01-21T16:48:33.817Z,97.60
2019-01-21T16:51:00.743Z,97.70
2019-01-21T16:53:27.603Z,97.80
2019-01-21T16:55:54.476Z,98.00
2019-01-21T16:58:21.319Z,98.10
2019-01-21T17:00:48.343Z,98.20
2019-01-21T17:03:15.203Z,98.20
2019-01-21T17:05:42.182Z,98.30
2019-01-21T17:08:08.995Z,98.30
2019-01-21T17:10:39.216Z,98.50
2019-01-21T17:13:04.750Z,98.70
2019-01-21T17:15:31.465Z,98.80
2019-01-21T17:17:58.314Z,98.90
2019-01-21T17:20:25.279Z,99.20
2019-01-21T17:22:52.277Z,99.00
2019-01-21T17:25:19.491Z,99.10
2019-01-21T17:27:46.392Z,99.10
2019-01-21T17:30:14.167Z,99.20
2019-01-21T17:32:41.067Z,99.30
2019-01-21T17:35:08.916Z,99.40
2019-01-21T17:37:35.851Z,99.50
2019-01-21T17:40:04.711Z,99.60
2019-01-21T17:42:31.555Z,99.60
2019-01-21T17:44:58.399Z,99.70
2019-01-21T17:47:25.275Z,99.80
2019-01-21T17:49:52.135Z,99.90
2019-01-21T17:52:18.923Z,99.90
2019-01-21T17:54:45.766Z,99.90
2019-01-21T17:57:12.497Z,99.90
2019-01-21T17:59:39.364Z,99.90
2019-01-21T18:02:06.335Z,99.90
2019-01-21T18:04:33.218Z,99.90
2019-01-21T18:07:00.060Z,99.90
2019-01-21T18:09:26.927Z,99.90
2019-01-21T18:11:53.757Z,99.90
2019-01-21T18:14:20.628Z,99.90
2019-01-21T18:16:47.499Z,99.90
2019-01-21T18:19:14.344Z,99.90
2019-01-21T18:21:41.291Z,99.90
2019-01-21T18:24:08.261Z,99.90
2019-01-21T18:26:35.331Z,99.90
2019-01-21T18:29:02.302Z,99.90
2019-01-21T18:31:29.259Z,99.90
2019-01-21T18:33:56.153Z,99.90
2019-01-21T18:36:23.267Z,99.90
2019-01-21T18:38:49.999Z,99.90
2019-01-21T18:41:17.002Z,99.90
2019-01-21T18:43:43.873Z,99.90
2019-01-21T18:46:10.690Z,99.90
2019-01-21T18:48:37.764Z,99.90
2019-01-21T18:51:04.780Z,99.90
2019-01-21T18:53:31.615Z,99.90
2019-01-21T18:55:58.569Z,99.90
2019-01-21T18:58:25.440Z,99.90
2019-01-21T19:00:52.370Z,99.90
2019-01-21T19:03:19.083Z,99.90
2019-01-21T19:05:45.823Z,99.90
2019-01-21T19:08:12.642Z,99.90
2019-01-21T19:10:39.615Z,99.90
2019-01-21T19:13:06.663Z,99.90
2019-01-21T19:15:33.746Z,99.90
2019-01-21T19:18:00.993Z,99.90
2019-01-21T19:20:27.834Z,99.90
2019-01-21T19:22:54.803Z,99.90
2019-01-21T19:25:21.671Z,99.90
2019-01-21T19:27:48.535Z,99.90
2019-01-21T19:30:18.056Z,99.90
2019-01-21T19:32:45.123Z,99.90
2019-01-21T19:35:13.903Z,99.90
2019-01-21T19:37:40.875Z,99.90
2019-01-21T19:40:11.330Z,99.90
2019-01-21T19:42:38.162Z,99.90
2019-01-21T19:45:05.704Z,99.90
2019-01-21T19:47:32.511Z,99.90
2019-01-21T19:49:59.522Z,99.90
2019-01-21T19:52:26.327Z,99.90
2019-01-21T19:54:53.111Z,99.90
2019-01-21T19:57:20.111Z,99.90
2019-01-21T19:59:46.900Z,99.90
2019-01-21T20:02:13.888Z,99.90
2019-01-21T20:04:40.723Z,99.90
2019-01-21T20:07:07.682Z,99.90
2019-01-21T20:09:34.552Z,99.90
2019-01-21T20:12:01.412Z,99.90
2019-01-21T20:14:28.215Z,99.90
2019-01-21T20:16:55.155Z,99.90
2019-01-21T20:19:22.192Z,99.90
2019-01-21T20:21:49.083Z,99.90
2019-01-21T20:24:15.810Z,99.90
2019-01-21T20:26:42.659Z,99.90
2019-01-21T20:29:09.904Z,99.90
2019-01-21T20:31:36.859Z,99.90
2019-01-21T20:34:03.729Z,99.90
2019-01-21T20:36:30.677Z,99.90
2019-01-21T20:38:57.428Z,99.90
2019-01-21T20:41:24.479Z,99.90
2019-01-21T20:43:51.476Z,99.90
2019-01-21T20:46:18.503Z,99.90
2019-01-21T20:48:45.345Z,99.90
2019-01-21T20:51:12.207Z,99.90
2019-01-21T20:53:39.079Z,99.90
2019-01-21T20:56:06.336Z,99.90
2019-01-21T20:58:33.195Z,99.90
2019-01-21T21:01:00.053Z,99.90
2019-01-21T21:03:27.043Z,99.90
2019-01-21T21:05:55.478Z,99.90
2019-01-21T21:08:22.423Z,99.90
2019-01-21T21:10:49.186Z,99.90
2019-01-21T21:13:15.907Z,99.90
2019-01-21T21:15:50.132Z,99.90
2019-01-21T21:18:22.879Z,99.90
2019-01-21T21:20:50.315Z,99.90
2019-01-21T21:23:17.135Z,99.90
2019-01-21T21:25:44.151Z,99.90
2019-01-21T21:28:11.033Z,99.90
2019-01-21T21:30:37.991Z,99.90
2019-01-21T21:33:06.061Z,99.90
2019-01-21T21:35:38.051Z,99.90
2019-01-21T21:38:04.976Z,99.90
2019-01-21T21:40:34.271Z,99.90
2019-01-21T21:43:01.123Z,99.90
2019-01-21T21:45:28.089Z,99.90
2019-01-21T21:48:01.121Z,99.90
2019-01-21T21:50:28.851Z,99.90
2019-01-21T21:52:55.789Z,99.90
2019-01-21T21:55:22.746Z,99.90
2019-01-21T21:57:49.633Z,99.90
2019-01-21T22:00:19.215Z,99.90
2019-01-21T22:02:49.714Z,99.90
2019-01-21T22:05:17.895Z,99.90
2019-01-21T22:07:45.860Z,99.90
2019-01-21T22:10:14.422Z,99.90
2019-01-21T22:12:41.994Z,99.90
2019-01-21T22:15:12.637Z,99.90
2019-01-21T22:17:45.858Z,99.90
2019-01-21T22:20:15.149Z,99.90
2019-01-21T22:22:42.683Z,99.90
2019-01-21T22:25:10.192Z,99.90
2019-01-21T22:27:37.236Z,99.90
2019-01-21T22:30:05.536Z,99.90
2019-01-21T22:32:32.336Z,99.90
2019-01-21T22:34:59.496Z,99.90
2019-01-21T22:37:26.352Z,99.90
2019-01-21T22:39:53.312Z,99.90
2019-01-21T22:42:20.375Z,99.90
2019-01-21T22:44:47.244Z,99.90
2019-01-21T22:47:14.049Z,99.90
2019-01-21T22:49:40.900Z,99.90
2019-01-21T22:52:10.480Z,99.90
2019-01-21T22:54:42.221Z,99.90
2019-01-21T22:57:09.848Z,99.90
2019-01-21T22:59:39.963Z,99.90
2019-01-21T23:02:06.803Z,99.90
2019-01-21T23:04:33.578Z,99.90
2019-01-21T23:07:00.572Z,99.90
2019-01-21T23:09:27.731Z,99.90
2019-01-21T23:11:54.765Z,99.90
2019-01-21T23:14:21.595Z,99.90
2019-01-21T23:16:48.563Z,99.90
2019-01-21T23:19:15.522Z,99.90
2019-01-21T23:21:42.396Z,99.90
2019-01-21T23:24:09.107Z,99.90
2019-01-21T23:26:35.847Z,99.90
2019-01-21T23:29:02.804Z,99.90
2019-01-21T23:31:30.220Z,99.90
2019-01-21T23:33:57.371Z,99.90
2019-01-21T23:36:24.423Z,99.90
2019-01-21T23:38:51.496Z,99.90
2019-01-21T23:41:18.631Z,99.90
2019-01-21T23:43:45.644Z,99.90
2019-01-21T23:46:12.500Z,99.90
2019-01-21T23:48:39.403Z,99.90
2019-01-21T23:51:06.298Z,99.90
2019-01-21T23:53:33.210Z,99.90
2019-01-21T23:56:00.475Z,99.90
2019-01-21T23:58:27.355Z,99.90
